Time;durP1;ratioP1;P1;durP2;ratioP2;P2;SDS_P1;SDS_P2;PMS_P1;PMS_P2;Temp;Humidity;BMP_temperature;BMP_pressure;BME280_temperature;BME280_humidity;BME280_pressure;Samples;Min_cycle;Max_cycle;Signal;HPM_P1;HPM_P2
2022/05/16 00:01:20;;;;;;;0.30;0.30;;;16.10;99.90;;;;;;5034401;28;20679;-70
2022/05/16 00:03:45;;;;;;;0.30;0.30;;;16.10;99.90;;;;;;5033140;28;20671;-71
2022/05/16 00:06:11;;;;;;;0.30;0.30;;;16.00;99.90;;;;;;5034482;28;20529;-71
2022/05/16 00:08:36;;;;;;;0.47;0.47;;;16.10;99.90;;;;;;5034670;28;20201;-68
2022/05/16 00:11:03;;;;;;;0.30;0.30;;;16.00;99.90;;;;;;5034511;28;20226;-69
2022/05/16 00:13:28;;;;;;;0.30;0.30;;;16.00;99.90;;;;;;5034138;28;20209;-70
2022/05/16 00:15:55;;;;;;;0.30;0.30;;;15.90;99.90;;;;;;5034351;28;20893;-70
2022/05/16 00:18:21;;;;;;;0.30;0.30;;;16.00;99.90;;;;;;5034296;28;20304;-70
2022/05/16 00:20:47;;;;;;;0.30;0.30;;;16.00;99.90;;;;;;5033963;28;20463;-71
2022/05/16 00:23:14;;;;;;;0.30;0.30;;;15.90;99.90;;;;;;5033863;28;20407;-70
2022/05/16 00:25:40;;;;;;;0.30;0.30;;;16.00;99.90;;;;;;5034013;28;20822;-70
2022/05/16 00:28:05;;;;;;;0.30;0.30;;;15.90;99.90;;;;;;5034182;28;20429;-70
2022/05/16 00:30:31;;;;;;;0.30;0.30;;;16.00;99.90;;;;;;5033897;28;20427;-71
2022/05/16 00:32:57;;;;;;;0.40;0.40;;;16.00;99.90;;;;;;5033747;28;20285;-70
2022/05/16 00:35:23;;;;;;;0.30;0.30;;;15.90;99.90;;;;;;5033989;28;20440;-69
2022/05/16 00:37:49;;;;;;;0.30;0.30;;;15.90;99.90;;;;;;5032459;28;20691;-69
2022/05/16 00:40:16;;;;;;;0.30;0.30;;;15.90;99.90;;;;;;5033775;28;20903;-69
2022/05/16 00:42:42;;;;;;;0.30;0.30;;;15.90;99.90;;;;;;5033407;28;20432;-70
2022/05/16 00:45:10;;;;;;;0.40;0.40;;;15.80;99.90;;;;;;5033807;28;20408;-69
2022/05/16 00:47:36;;;;;;;0.30;0.30;;;15.60;99.90;;;;;;5034036;28;20975;-70
2022/05/16 00:50:04;;;;;;;2.63;1.00;;;15.60;99.90;;;;;;5033547;28;20420;-69
2022/05/16 00:52:34;;;;;;;0.30;0.30;;;15.50;99.90;;;;;;5033329;28;20197;-69
2022/05/16 00:55:09;;;;;;;1.90;1.03;;;15.40;99.90;;;;;;5033788;28;20403;-70
2022/05/16 00:57:40;;;;;;;0.30;0.30;;;15.30;99.90;;;;;;5033712;28;20850;-68
2022/05/16 01:00:19;;;;;;;0.30;0.30;;;15.30;99.90;;;;;;5033673;28;20382;-69
2022/05/16 01:05:44;;;;;;;0.30;0.30;;;15.20;99.90;;;;;;5033711;28;20858;-69
2022/05/16 01:08:13;;;;;;;0.30;0.30;;;15.10;99.90;;;;;;5033514;28;20440;-70
2022/05/16 01:10:39;;;;;;;0.30;0.30;;;15.20;99.90;;;;;;5033398;28;20256;-68
2022/05/16 01:13:06;;;;;;;0.30;0.30;;;15.20;99.90;;;;;;5033170;28;20456;-70
2022/05/16 01:15:43;;;;;;;0.30;0.30;;;15.10;99.90;;;;;;5033132;28;20444;-69
2022/05/16 01:18:10;;;;;;;0.30;0.30;;;15.00;99.90;;;;;;5033391;28;20433;-68
2022/05/16 01:20:55;;;;;;;0.30;0.30;;;15.10;99.90;;;;;;5033173;28;20429;-69
2022/05/16 01:23:24;;;;;;;0.97;0.97;;;15.00;99.90;;;;;;5032101;28;20436;-70
2022/05/16 01:25:52;;;;;;;0.30;0.30;;;14.90;99.90;;;;;;5033252;28;20449;-69
2022/05/16 01:28:20;;;;;;;0.33;0.33;;;15.00;99.90;;;;;;5033306;28;20512;-70
2022/05/16 01:30:47;;;;;;;0.30;0.30;;;15.00;99.90;;;;;;5033407;28;20441;-69
2022/05/16 01:33:14;;;;;;;0.40;0.40;;;14.90;99.90;;;;;;5033162;28;20461;-70
2022/05/16 01:35:40;;;;;;;0.30;0.30;;;14.90;99.90;;;;;;5033673;28;20899;-69
2022/05/16 01:38:23;;;;;;;0.30;0.30;;;14.80;99.90;;;;;;5033265;28;20498;-70
2022/05/16 01:40:53;;;;;;;0.30;0.30;;;14.90;99.90;;;;;;5033200;28;20577;-69
2022/05/16 01:43:21;;;;;;;0.30;0.30;;;14.90;99.90;;;;;;5033147;28;20409;-71
2022/05/16 01:45:48;;;;;;;0.30;0.30;;;14.90;99.90;;;;;;5033231;28;20400;-71
2022/05/16 01:48:16;;;;;;;0.30;0.30;;;14.90;99.90;;;;;;5033144;28;20438;-70
2022/05/16 01:50:43;;;;;;;0.30;0.30;;;14.90;99.90;;;;;;5032980;28;20413;-71
2022/05/16 01:53:10;;;;;;;0.30;0.30;;;14.90;99.90;;;;;;5032813;28;20498;-70
2022/05/16 01:55:35;;;;;;;0.40;0.40;;;14.90;99.90;;;;;;5034933;28;20403;-70
2022/05/16 01:58:01;;;;;;;0.30;0.30;;;14.90;99.90;;;;;;5036758;28;20423;-69
2022/05/16 02:00:27;;;;;;;0.30;0.30;;;14.80;99.90;;;;;;5036840;28;20639;-69
2022/05/16 02:02:53;;;;;;;0.30;0.30;;;14.80;99.90;;;;;;5036644;28;20401;-69
2022/05/16 02:05:21;;;;;;;0.30;0.30;;;14.70;99.90;;;;;;5037126;28;20333;-70
2022/05/16 02:07:50;;;;;;;0.40;0.40;;;14.70;99.90;;;;;;5036795;28;20232;-70
2022/05/16 02:10:16;;;;;;;0.30;0.30;;;14.70;99.90;;;;;;5035405;28;20419;-69
2022/05/16 02:12:43;;;;;;;0.30;0.30;;;14.70;99.90;;;;;;5036326;28;20476;-69
2022/05/16 02:15:11;;;;;;;0.30;0.30;;;14.70;99.90;;;;;;5036689;28;20456;-68
2022/05/16 02:17:37;;;;;;;0.30;0.30;;;14.70;99.90;;;;;;5036534;28;20433;-70
2022/05/16 02:20:03;;;;;;;0.30;0.30;;;14.70;99.90;;;;;;5036311;28;20419;-69
2022/05/16 02:25:13;;;;;;;0.30;0.30;;;14.70;99.90;;;;;;5036560;28;20405;-70
2022/05/16 02:27:39;;;;;;;2.93;0.70;;;14.50;99.90;;;;;;5036363;28;20770;-70
2022/05/16 02:30:06;;;;;;;0.30;0.30;;;14.50;99.90;;;;;;5036229;28;20829;-69
2022/05/16 02:32:32;;;;;;;0.30;0.30;;;14.40;99.90;;;;;;5035848;28;20209;-70
2022/05/16 02:34:57;;;;;;;0.33;0.33;;;14.40;99.90;;;;;;5036151;28;20405;-70
2022/05/16 02:37:23;;;;;;;1.23;0.67;;;14.40;99.90;;;;;;5034846;28;20171;-71
2022/05/16 02:39:49;;;;;;;0.30;0.30;;;14.40;99.90;;;;;;5036051;28;20189;-71
2022/05/16 02:42:15;;;;;;;0.30;0.30;;;14.30;99.90;;;;;;5036017;28;20406;-69
2022/05/16 02:44:42;;;;;;;0.60;0.60;;;14.20;99.90;;;;;;5034817;28;20647;-71
2022/05/16 02:47:12;;;;;;;0.30;0.30;;;14.20;99.90;;;;;;5036093;28;20885;-69
2022/05/16 02:49:38;;;;;;;0.30;0.30;;;14.10;99.90;;;;;;5035861;28;20515;-71
2022/05/16 02:52:04;;;;;;;0.30;0.30;;;14.20;99.90;;;;;;5035906;28;20891;-71
2022/05/16 02:54:30;;;;;;;0.30;0.30;;;14.10;99.90;;;;;;5035921;28;20181;-68
2022/05/16 02:56:55;;;;;;;0.30;0.30;;;14.20;99.90;;;;;;5035896;28;20441;-70
2022/05/16 02:59:23;;;;;;;0.30;0.30;;;14.20;99.90;;;;;;5035763;28;20387;-70
2022/05/16 03:01:49;;;;;;;0.30;0.30;;;14.20;99.90;;;;;;5035689;28;20173;-70
2022/05/16 03:04:14;;;;;;;0.30;0.30;;;14.20;99.90;;;;;;5035432;28;20488;-70
2022/05/16 03:06:42;;;;;;;0.30;0.30;;;14.20;99.90;;;;;;5035754;28;20684;-71
2022/05/16 03:09:07;;;;;;;0.30;0.30;;;14.30;99.90;;;;;;5035526;28;20182;-71
2022/05/16 03:11:33;;;;;;;0.30;0.30;;;14.30;99.90;;;;;;5035376;28;20420;-70
2022/05/16 03:13:59;;;;;;;0.30;0.30;;;14.30;99.90;;;;;;5035210;28;20665;-70
2022/05/16 03:16:25;;;;;;;0.30;0.30;;;14.30;99.90;;;;;;5034391;28;20254;-68
2022/05/16 03:18:51;;;;;;;0.40;0.40;;;14.30;99.90;;;;;;5035291;28;20188;-71
2022/05/16 03:21:17;;;;;;;0.30;0.30;;;14.20;99.90;;;;;;5035290;28;20425;-71
2022/05/16 03:23:43;;;;;;;0.30;0.30;;;14.20;99.90;;;;;;5035244;28;20250;-69
2022/05/16 03:26:09;;;;;;;0.30;0.30;;;14.20;99.90;;;;;;5035290;28;20414;-70
2022/05/16 03:28:35;;;;;;;0.30;0.30;;;14.20;99.90;;;;;;5035050;28;20545;-70
2022/05/16 03:31:01;;;;;;;0.30;0.30;;;14.10;99.90;;;;;;5035291;28;20437;-70
2022/05/16 03:33:27;;;;;;;0.40;0.40;;;14.20;99.90;;;;;;5035115;28;20696;-69
2022/05/16 03:35:55;;;;;;;0.30;0.30;;;14.20;99.90;;;;;;5035143;28;20467;-71
2022/05/16 03:41:10;;;;;;;0.30;0.30;;;14.20;99.90;;;;;;5035343;28;20400;-70
2022/05/16 03:43:37;;;;;;;0.30;0.30;;;14.20;99.90;;;;;;5034684;28;20897;-70
2022/05/16 03:46:05;;;;;;;0.30;0.30;;;14.20;99.90;;;;;;5034887;28;20542;-70
2022/05/16 03:48:32;;;;;;;0.30;0.30;;;14.20;99.90;;;;;;5034658;28;20429;-69
2022/05/16 03:50:57;;;;;;;0.40;0.40;;;14.10;99.90;;;;;;5034819;28;20802;-68
2022/05/16 03:53:23;;;;;;;0.50;0.50;;;14.20;99.90;;;;;;5034435;28;20456;-70
2022/05/16 03:55:49;;;;;;;0.30;0.30;;;14.20;99.90;;;;;;5035056;28;20167;-69
2022/05/16 03:58:14;;;;;;;0.30;0.30;;;14.20;99.90;;;;;;5034715;28;20273;-70
2022/05/16 04:00:40;;;;;;;0.30;0.30;;;14.20;99.90;;;;;;5034595;28;20174;-68
2022/05/16 04:03:06;;;;;;;0.30;0.30;;;14.20;99.90;;;;;;5034278;28;20173;-69
2022/05/16 04:05:32;;;;;;;0.30;0.30;;;14.10;99.90;;;;;;5034588;28;20420;-71
2022/05/16 04:07:58;;;;;;;0.30;0.30;;;14.10;99.90;;;;;;5034297;28;20219;-69
2022/05/16 04:10:24;;;;;;;0.30;0.30;;;14.10;99.90;;;;;;5034527;28;20441;-71
2022/05/16 04:12:50;;;;;;;0.40;0.40;;;14.10;99.90;;;;;;5034289;28;20464;-68
2022/05/16 04:15:17;;;;;;;0.80;0.80;;;14.10;99.90;;;;;;5034374;28;20883;-70
2022/05/16 04:17:43;;;;;;;0.30;0.30;;;14.10;99.90;;;;;;5033837;28;20791;-70
2022/05/16 04:20:10;;;;;;;0.40;0.40;;;14.10;99.90;;;;;;5034179;28;20950;-68
2022/05/16 04:22:36;;;;;;;0.30;0.30;;;14.10;99.90;;;;;;5034088;28;20825;-68
2022/05/16 04:25:03;;;;;;;0.30;0.30;;;14.10;99.90;;;;;;5034281;28;20409;-69
2022/05/16 04:27:28;;;;;;;0.30;0.30;;;14.10;99.90;;;;;;5034206;28;20552;-71
2022/05/16 04:29:54;;;;;;;0.30;0.30;;;14.10;99.90;;;;;;5034118;28;20914;-69
2022/05/16 04:32:20;;;;;;;0.30;0.30;;;14.20;99.90;;;;;;5033842;28;20225;-70
2022/05/16 04:34:45;;;;;;;0.40;0.40;;;14.30;99.90;;;;;;5034068;28;20249;-68
2022/05/16 04:37:11;;;;;;;0.30;0.30;;;14.30;99.90;;;;;;5033823;28;20218;-69
2022/05/16 04:39:37;;;;;;;0.30;0.30;;;14.30;99.90;;;;;;5033783;28;20193;-71
2022/05/16 04:44:47;;;;;;;0.30;0.30;;;14.40;99.90;;;;;;5034053;28;20533;-69
2022/05/16 04:47:13;;;;;;;0.30;0.30;;;14.60;99.90;;;;;;5033770;28;20409;-68
2022/05/16 04:49:39;;;;;;;0.40;0.40;;;14.80;99.90;;;;;;5033581;28;20643;-70
2022/05/16 04:52:05;;;;;;;0.70;0.70;;;15.00;99.90;;;;;;5033437;28;20712;-71
2022/05/16 04:54:31;;;;;;;0.30;0.30;;;15.30;99.90;;;;;;5033659;28;20399;-70
2022/05/16 04:56:57;;;;;;;0.30;0.30;;;15.70;99.90;;;;;;5033789;28;20403;-70
2022/05/16 04:59:23;;;;;;;0.40;0.40;;;16.20;99.90;;;;;;5033543;28;20190;-69
2022/05/16 05:01:49;;;;;;;0.40;0.40;;;16.80;99.90;;;;;;5033606;28;20889;-71
2022/05/16 05:04:15;;;;;;;0.30;0.30;;;17.40;99.90;;;;;;5033303;28;20170;-69
2022/05/16 05:06:41;;;;;;;0.40;0.40;;;17.80;99.90;;;;;;5033896;28;20402;-71
2022/05/16 05:09:07;;;;;;;0.30;0.30;;;18.20;99.90;;;;;;5033377;28;20448;-71
2022/05/16 05:14:34;;;;;;;0.67;0.50;;;18.70;99.80;;;;;;5033683;28;20254;-70
2022/05/16 05:17:06;;;;;;;0.50;0.50;;;18.70;99.00;;;;;;5032087;28;21029;-70
2022/05/16 05:19:32;;;;;;;0.40;0.40;;;18.50;99.00;;;;;;5033150;28;20454;-71
2022/05/16 05:21:58;;;;;;;0.87;0.87;;;18.20;99.10;;;;;;5033613;28;20408;-70
2022/05/16 05:24:24;;;;;;;0.50;0.50;;;17.80;99.30;;;;;;5033275;28;20414;-69
2022/05/16 05:26:51;;;;;;;0.30;0.30;;;17.50;99.90;;;;;;5033225;28;20262;-69
2022/05/16 05:29:16;;;;;;;0.83;0.83;;;17.40;99.90;;;;;;5033347;28;20193;-69
2022/05/16 05:31:43;;;;;;;0.40;0.40;;;17.40;99.90;;;;;;5036993;28;20405;-69
2022/05/16 05:34:09;;;;;;;0.30;0.30;;;17.30;99.90;;;;;;5035895;28;20414;-69
2022/05/16 05:36:35;;;;;;;0.80;0.80;;;17.20;99.90;;;;;;5037326;28;20397;-69
2022/05/16 05:39:02;;;;;;;0.30;0.30;;;17.10;99.90;;;;;;5037655;28;20420;-70
2022/05/16 05:41:28;;;;;;;0.30;0.30;;;17.10;99.90;;;;;;5037335;28;20402;-71
2022/05/16 05:43:54;;;;;;;0.30;0.30;;;17.20;99.90;;;;;;5036862;28;20444;-71
2022/05/16 05:46:20;;;;;;;0.30;0.30;;;17.30;99.90;;;;;;5037061;28;20483;-70
2022/05/16 05:48:46;;;;;;;0.43;0.43;;;17.50;99.90;;;;;;5036881;28;20421;-69
2022/05/16 05:51:14;;;;;;;0.57;0.50;;;17.60;99.90;;;;;;5037143;28;20398;-69
2022/05/16 05:53:41;;;;;;;0.30;0.30;;;17.80;99.90;;;;;;5035401;28;20468;-70
2022/05/16 05:56:08;;;;;;;0.60;0.60;;;17.80;99.90;;;;;;5037088;28;20397;-70
2022/05/16 05:58:34;;;;;;;0.90;0.90;;;17.90;99.90;;;;;;5036820;28;20421;-71
2022/05/16 06:01:01;;;;;;;0.40;0.40;;;17.90;99.90;;;;;;5036797;28;20409;-71
2022/05/16 06:03:27;;;;;;;0.30;0.30;;;18.00;99.90;;;;;;5036746;28;20488;-68
2022/05/16 06:05:53;;;;;;;0.30;0.30;;;18.30;99.90;;;;;;5036750;28;20517;-71
2022/05/16 06:08:19;;;;;;;0.30;0.30;;;18.40;99.90;;;;;;5036628;28;20906;-69
2022/05/16 06:10:45;;;;;;;0.30;0.30;;;18.50;99.90;;;;;;5036612;28;20506;-71
2022/05/16 06:13:11;;;;;;;0.63;0.60;;;18.60;99.90;;;;;;5036441;28;20480;-70
2022/05/16 06:15:37;;;;;;;0.30;0.30;;;18.70;99.90;;;;;;5036719;28;20413;-71
2022/05/16 06:18:03;;;;;;;0.40;0.40;;;18.80;99.90;;;;;;5036379;28;20190;-71
2022/05/16 06:20:30;;;;;;;0.30;0.30;;;19.20;99.90;;;;;;5035654;28;20428;-70
2022/05/16 06:22:56;;;;;;;0.40;0.40;;;19.70;99.90;;;;;;5035152;28;20823;-71
2022/05/16 06:25:31;;;;;;;0.30;0.30;;;20.30;99.90;;;;;;5035349;28;20428;-70
2022/05/16 06:28:09;;;;;;;0.30;0.30;;;21.00;99.00;;;;;;5035276;28;20196;-70
2022/05/16 06:30:37;;;;;;;0.30;0.30;;;21.80;97.90;;;;;;5035338;28;20393;-72
2022/05/16 06:33:04;;;;;;;0.30;0.30;;;22.90;94.10;;;;;;5033587;28;20465;-71
2022/05/16 06:35:31;;;;;;;0.30;0.30;;;24.50;92.10;;;;;;5035192;28;20386;-71
2022/05/16 06:38:23;;;;;;;0.50;0.50;;;26.20;86.80;;;;;;5035068;28;20425;-71
2022/05/16 06:40:49;;;;;;;1.73;1.63;;;27.60;79.70;;;;;;5034215;28;20392;-71
2022/05/16 06:43:17;;;;;;;0.30;0.30;;;28.30;66.30;;;;;;5034847;28;20468;-69
2022/05/16 06:45:42;;;;;;;0.30;0.30;;;28.60;68.80;;;;;;5034897;28;20430;-70
2022/05/16 06:48:09;;;;;;;0.30;0.30;;;29.00;61.90;;;;;;5034791;28;20476;-68
2022/05/16 06:50:36;;;;;;;0.40;0.40;;;29.40;56.40;;;;;;5034657;28;20167;-69
2022/05/16 06:53:03;;;;;;;0.30;0.30;;;29.70;55.50;;;;;;5034652;28;20460;-68
2022/05/16 06:55:30;;;;;;;0.30;0.30;;;29.40;53.50;;;;;;5034876;28;20410;-67
2022/05/16 06:57:56;;;;;;;0.30;0.30;;;28.70;54.10;;;;;;5034554;28;20421;-69
2022/05/16 07:00:22;;;;;;;0.40;0.40;;;28.40;54.00;;;;;;5034541;28;20489;-69
2022/05/16 07:02:48;;;;;;;1.63;0.70;;;28.90;55.40;;;;;;5034509;28;20409;-69
2022/05/16 07:05:15;;;;;;;0.30;0.30;;;29.30;55.00;;;;;;5035146;28;20405;-70
2022/05/16 07:07:41;;;;;;;0.30;0.30;;;29.70;52.80;;;;;;5034661;28;20425;-70
2022/05/16 07:10:07;;;;;;;0.50;0.50;;;30.20;52.90;;;;;;5034534;28;20416;-69
2022/05/16 07:12:32;;;;;;;0.30;0.30;;;29.60;51.40;;;;;;5034465;28;20204;-68
2022/05/16 07:14:58;;;;;;;0.30;0.30;;;29.40;52.70;;;;;;5034491;28;20893;-68
2022/05/16 07:17:24;;;;;;;0.80;0.40;;;28.50;54.70;;;;;;5034503;28;20167;-68
2022/05/16 07:19:50;;;;;;;2.83;0.70;;;28.30;57.70;;;;;;4995390;28;1132624;-70
2022/05/16 07:22:22;;;;;;;0.50;0.50;;;29.30;56.50;;;;;;5035292;28;20171;-69
2022/05/16 07:24:48;;;;;;;0.30;0.30;;;30.60;53.50;;;;;;5035521;28;20201;-69
2022/05/16 07:29:58;;;;;;;0.50;0.50;;;32.10;47.90;;;;;;5035208;28;20401;-68
2022/05/16 07:32:31;;;;;;;0.83;0.83;;;31.20;47.60;;;;;;5034879;28;20445;-68
2022/05/16 07:35:00;;;;;;;0.60;0.60;;;31.20;50.00;;;;;;5035388;28;20179;-70
2022/05/16 07:37:26;;;;;;;0.40;0.40;;;30.60;50.60;;;;;;5035213;28;20485;-70
2022/05/16 07:39:51;;;;;;;0.67;0.67;;;29.80;50.00;;;;;;5035096;28;20898;-70
2022/05/16 07:42:17;;;;;;;0.30;0.30;;;29.00;52.90;;;;;;5034978;28;20705;-68
2022/05/16 07:44:43;;;;;;;0.30;0.30;;;28.90;51.50;;;;;;5034846;28;20175;-70
2022/05/16 07:47:08;;;;;;;0.63;0.63;;;29.50;51.70;;;;;;5034874;28;20209;-69
2022/05/16 07:49:34;;;;;;;0.30;0.30;;;30.20;50.40;;;;;;5034782;28;20245;-69
2022/05/16 07:52:00;;;;;;;0.47;0.47;;;30.40;49.90;;;;;;5033195;28;20202;-69
2022/05/16 07:54:25;;;;;;;0.37;0.37;;;29.60;50.80;;;;;;5034423;28;20190;-69
2022/05/16 07:56:51;;;;;;;0.30;0.30;;;28.90;51.90;;;;;;5034586;28;20167;-68
2022/05/16 07:59:16;;;;;;;0.60;0.50;;;28.00;53.80;;;;;;5034350;28;20191;-68
2022/05/16 08:01:42;;;;;;;0.83;0.83;;;27.00;56.00;;;;;;5034765;28;20627;-70
2022/05/16 08:04:08;;;;;;;0.67;0.67;;;26.20;57.60;;;;;;5034337;28;20258;-68
2022/05/16 08:06:35;;;;;;;0.87;0.87;;;25.80;59.10;;;;;;5034528;28;20423;-68
2022/05/16 08:11:45;;;;;;;0.30;0.30;;;24.30;63.40;;;;;;5034681;28;20438;-69
2022/05/16 08:14:11;;;;;;;0.53;0.53;;;23.20;63.00;;;;;;5034189;28;20401;-68
2022/05/16 08:16:37;;;;;;;0.30;0.30;;;22.50;65.90;;;;;;5034275;28;20193;-68
2022/05/16 08:19:03;;;;;;;0.30;0.30;;;22.50;66.80;;;;;;5033987;28;20790;-70
2022/05/16 08:21:29;;;;;;;0.70;0.70;;;22.80;69.90;;;;;;5034262;28;20698;-69
2022/05/16 08:23:55;;;;;;;0.30;0.30;;;23.50;69.70;;;;;;5034026;28;20535;-67
2022/05/16 08:26:20;;;;;;;0.40;0.40;;;23.30;68.10;;;;;;5034210;28;20367;-68
2022/05/16 08:28:46;;;;;;;0.30;0.30;;;23.00;68.80;;;;;;5033997;28;20425;-67
2022/05/16 08:31:12;;;;;;;0.30;0.30;;;22.70;69.10;;;;;;5034017;28;20228;-67
2022/05/16 08:33:39;;;;;;;0.30;0.30;;;22.70;74.80;;;;;;5033940;28;20949;-68
2022/05/16 08:41:58;;;;;;;0.73;0.73;;;25.60;65.10;;;;;;5034099;28;20552;-68
2022/05/16 08:44:36;;;;;;;0.30;0.30;;;25.40;67.40;;;;;;5033744;28;20425;-69
2022/05/16 08:47:14;;;;;;;0.30;0.30;;;24.40;69.40;;;;;;5033940;28;20416;-69
2022/05/16 08:50:01;;;;;;;0.40;0.40;;;24.10;73.90;;;;;;5034086;28;20407;-67
2022/05/16 08:52:36;;;;;;;0.30;0.30;;;23.70;73.70;;;;;;5033682;28;20459;-69
2022/05/16 08:55:25;;;;;;;0.30;0.30;;;23.90;76.50;;;;;;5033842;28;20398;-68
2022/05/16 08:58:01;;;;;;;0.30;0.30;;;24.80;76.50;;;;;;5033789;28;20427;-69
2022/05/16 09:01:11;;;;;;;0.57;0.57;;;26.20;74.80;;;;;;5033610;28;20402;-69
2022/05/16 09:04:07;;;;;;;0.40;0.40;;;27.20;68.50;;;;;;5032019;28;20440;-70
2022/05/16 09:06:35;;;;;;;0.50;0.37;;;27.10;67.60;;;;;;5033631;28;20398;-68
2022/05/16 09:09:12;;;;;;;0.30;0.30;;;27.20;66.70;;;;;;5033324;28;20433;-68
2022/05/16 09:11:52;;;;;;;0.30;0.30;;;28.30;66.20;;;;;;5033539;28;20393;-69
2022/05/16 09:14:33;;;;;;;0.50;0.40;;;28.40;62.00;;;;;;5031724;28;20906;-69
2022/05/16 09:17:07;;;;;;;0.30;0.30;;;29.00;60.60;;;;;;5033419;28;20842;-69
2022/05/16 09:20:14;;;;;;;0.30;0.30;;;29.40;58.50;;;;;;5033209;28;20453;-69
2022/05/16 09:23:09;;;;;;;1.40;1.10;;;29.50;57.40;;;;;;5011393;28;20870;-69
2022/05/16 09:26:08;;;;;;;0.40;0.40;;;29.40;57.20;;;;;;5033566;28;20417;-68
2022/05/16 09:28:42;;;;;;;1.23;1.23;;;29.30;56.70;;;;;;5033514;28;20432;-69
2022/05/16 09:31:17;;;;;;;0.77;0.77;;;27.80;58.50;;;;;;5033716;28;20954;-69
2022/05/16 09:33:46;;;;;;;0.30;0.30;;;26.70;61.80;;;;;;5033057;28;20476;-70
2022/05/16 09:36:14;;;;;;;0.30;0.30;;;26.90;62.50;;;;;;5033102;28;20405;-70
2022/05/16 09:38:44;;;;;;;1.63;1.63;;;26.90;63.00;;;;;;5033091;28;20432;-71
2022/05/16 09:41:20;;;;;;;0.37;0.37;;;27.10;62.20;;;;;;5033287;28;20485;-69
2022/05/16 09:43:54;;;;;;;0.30;0.30;;;26.40;62.00;;;;;;5033062;28;20894;-70
2022/05/16 09:46:25;;;;;;;0.30;0.30;;;27.20;64.40;;;;;;5033135;28;20419;-70
2022/05/16 09:49:02;;;;;;;0.30;0.30;;;28.50;62.10;;;;;;5033114;28;20433;-68
2022/05/16 09:51:30;;;;;;;2.00;1.90;;;29.50;59.30;;;;;;5033260;28;20514;-68
2022/05/16 09:54:10;;;;;;;0.40;0.40;;;29.70;57.40;;;;;;5032728;28;20484;-68
2022/05/16 09:56:36;;;;;;;0.30;0.30;;;29.10;55.90;;;;;;5033188;28;20413;-69
2022/05/16 09:59:03;;;;;;;0.30;0.30;;;29.00;57.60;;;;;;5033001;28;20432;-68
2022/05/16 10:01:35;;;;;;;0.30;0.30;;;29.70;57.50;;;;;;5033078;28;20175;-69
2022/05/16 10:04:38;;;;;;;0.30;0.30;;;29.90;57.80;;;;;;5032778;28;20401;-69
2022/05/16 10:07:04;;;;;;;0.37;0.37;;;29.70;55.20;;;;;;5033120;28;20766;-68
2022/05/16 10:09:36;;;;;;;0.40;0.40;;;29.20;56.70;;;;;;5032807;28;20429;-69
2022/05/16 10:12:04;;;;;;;1.50;1.43;;;28.20;56.60;;;;;;5032736;28;20285;-68
2022/05/16 10:14:30;;;;;;;0.30;0.30;;;27.10;56.90;;;;;;5032995;28;20488;-70
2022/05/16 10:16:56;;;;;;;0.30;0.30;;;27.00;61.60;;;;;;5035157;28;20404;-68
2022/05/16 10:19:26;;;;;;;0.30;0.30;;;27.20;57.90;;;;;;5036276;28;20495;-70
2022/05/16 10:22:05;;;;;;;0.63;0.63;;;27.50;59.50;;;;;;5036638;28;20745;-69
2022/05/16 10:24:38;;;;;;;1.47;0.77;;;27.30;60.30;;;;;;5036602;28;20507;-70
2022/05/16 10:27:09;;;;;;;0.50;0.50;;;27.40;59.40;;;;;;5036173;28;20420;-70
2022/05/16 10:29:40;;;;;;;0.30;0.30;;;28.00;59.90;;;;;;5036165;28;20939;-69
2022/05/16 10:35:12;;;;;;;0.30;0.30;;;27.60;57.10;;;;;;5036381;28;20444;-68
2022/05/16 10:37:42;;;;;;;0.30;0.30;;;27.00;58.40;;;;;;5036022;28;20412;-70
2022/05/16 10:40:23;;;;;;;0.30;0.30;;;26.80;61.70;;;;;;5035458;28;20821;-68
2022/05/16 10:43:04;;;;;;;0.30;0.30;;;26.30;61.60;;;;;;5035909;28;20438;-69
2022/05/16 10:45:31;;;;;;;0.30;0.30;;;25.80;61.00;;;;;;5036027;28;20499;-69
2022/05/16 10:48:41;;;;;;;0.60;0.60;;;25.70;65.40;;;;;;5036044;28;20492;-70
2022/05/16 10:51:07;;;;;;;0.30;0.30;;;25.70;63.30;;;;;;5036152;28;20843;-69
2022/05/16 10:53:40;;;;;;;0.30;0.30;;;25.30;62.40;;;;;;5035693;28;20439;-69
2022/05/16 10:56:15;;;;;;;0.30;0.30;;;25.40;67.90;;;;;;5035853;28;20402;-68
2022/05/16 10:58:53;;;;;;;0.30;0.30;;;25.60;63.50;;;;;;5035647;28;20437;-69
2022/05/16 11:01:30;;;;;;;0.30;0.30;;;25.40;64.10;;;;;;5036051;28;20405;-69
2022/05/16 11:04:03;;;;;;;0.40;0.40;;;25.40;66.70;;;;;;5035709;28;20735;-68
2022/05/16 11:06:37;;;;;;;0.30;0.30;;;25.20;64.40;;;;;;5035854;28;20383;-69
2022/05/16 11:09:11;;;;;;;0.30;0.30;;;24.90;65.60;;;;;;5035623;28;20434;-68
2022/05/16 11:12:01;;;;;;;1.63;1.53;;;24.90;69.50;;;;;;5035515;28;20429;-70
2022/05/16 11:14:57;;;;;;;0.30;0.30;;;25.10;67.50;;;;;;5035347;28;20421;-68
2022/05/16 11:17:49;;;;;;;0.30;0.30;;;24.90;65.10;;;;;;5035430;28;20398;-69
2022/05/16 11:20:23;;;;;;;0.30;0.30;;;24.80;69.60;;;;;;5035363;28;20467;-70
2022/05/16 11:23:20;;;;;;;0.77;0.77;;;24.60;68.90;;;;;;5035185;28;20573;-68
2022/05/16 11:26:02;;;;;;;0.30;0.30;;;24.60;69.70;;;;;;5035638;28;20410;-70
2022/05/16 11:29:18;;;;;;;0.30;0.30;;;24.80;71.10;;;;;;5034005;28;20408;-72
2022/05/16 11:31:58;;;;;;;0.40;0.40;;;24.70;68.40;;;;;;5035305;28;20431;-71
2022/05/16 11:34:57;;;;;;;0.30;0.30;;;24.50;69.70;;;;;;5035114;28;20402;-71
2022/05/16 11:37:45;;;;;;;0.30;0.30;;;24.60;71.30;;;;;;5033753;28;20479;-71
2022/05/16 11:40:34;;;;;;;0.40;0.40;;;24.90;73.20;;;;;;5034959;28;20404;-71
2022/05/16 11:43:12;;;;;;;0.30;0.30;;;25.30;73.60;;;;;;5035055;28;20742;-70
2022/05/16 11:45:54;;;;;;;0.30;0.30;;;25.20;68.80;;;;;;5035028;28;20434;-70
2022/05/16 11:48:45;;;;;;;0.30;0.30;;;25.30;69.50;;;;;;5034855;28;20476;-71
2022/05/16 11:51:40;;;;;;;0.30;0.30;;;25.00;69.70;;;;;;5034901;28;20427;-72
2022/05/16 11:54:08;;;;;;;0.30;0.30;;;25.10;69.60;;;;;;5034858;28;20395;-69
2022/05/16 12:02:28;;;;;;;3.60;2.00;;;25.10;70.30;;;;;;5034571;28;20392;-71
2022/05/16 12:05:00;;;;;;;0.30;0.30;;;25.20;69.20;;;;;;5034696;28;20380;-71
2022/05/16 12:07:38;;;;;;;0.30;0.30;;;24.70;65.90;;;;;;5034411;28;20379;-70
2022/05/16 12:10:15;;;;;;;0.30;0.30;;;24.80;65.90;;;;;;5034703;28;20349;-71
2022/05/16 12:12:47;;;;;;;0.30;0.30;;;24.90;70.20;;;;;;5034187;28;20423;-70
2022/05/16 12:15:16;;;;;;;0.87;0.50;;;25.00;69.50;;;;;;5034427;28;20405;-71
2022/05/16 12:18:04;;;;;;;0.30;0.30;;;25.20;69.90;;;;;;5034355;28;20437;-71
2022/05/16 12:20:35;;;;;;;0.50;0.50;;;25.30;68.60;;;;;;5034283;28;20425;-72
2022/05/16 12:23:01;;;;;;;0.30;0.30;;;25.00;67.50;;;;;;5034010;28;20405;-70
2022/05/16 12:25:32;;;;;;;0.30;0.30;;;24.90;68.00;;;;;;5034376;28;20406;-72
2022/05/16 12:28:13;;;;;;;0.40;0.40;;;24.80;68.60;;;;;;5034214;28;20412;-71
2022/05/16 12:30:39;;;;;;;0.93;0.93;;;24.90;70.90;;;;;;5034063;28;20410;-72
2022/05/16 12:33:26;;;;;;;0.30;0.30;;;24.90;70.30;;;;;;5034103;28;20858;-72
2022/05/16 12:35:53;;;;;;;0.30;0.30;;;25.00;68.70;;;;;;5034021;28;20380;-72
2022/05/16 12:38:22;;;;;;;1.50;1.40;;;24.70;69.00;;;;;;5033738;28;20425;-71
2022/05/16 12:41:10;;;;;;;0.30;0.30;;;24.40;69.60;;;;;;5033903;28;20895;-72
2022/05/16 12:44:18;;;;;;;0.30;0.30;;;24.30;70.90;;;;;;5033749;28;20372;-71
2022/05/16 12:46:58;;;;;;;0.30;0.30;;;24.00;72.10;;;;;;5033869;28;20967;-71
2022/05/16 12:49:43;;;;;;;0.30;0.30;;;23.80;72.30;;;;;;5033952;28;20388;-70
2022/05/16 12:52:27;;;;;;;0.30;0.30;;;23.70;73.30;;;;;;5033758;28;20441;-70
2022/05/16 12:55:11;;;;;;;0.30;0.30;;;23.70;74.30;;;;;;5033801;28;20790;-72
2022/05/16 12:57:57;;;;;;;0.30;0.30;;;24.20;72.90;;;;;;5034010;28;20972;-70
2022/05/16 13:00:56;;;;;;;0.30;0.30;;;24.80;73.90;;;;;;5033821;28;20408;-70
2022/05/16 13:03:40;;;;;;;0.30;0.30;;;24.70;73.70;;;;;;5032163;28;20437;-71
2022/05/16 13:06:28;;;;;;;0.30;0.30;;;24.70;73.30;;;;;;5033634;28;20372;-70
2022/05/16 13:09:02;;;;;;;0.30;0.30;;;24.80;74.80;;;;;;5022951;28;20952;-71
2022/05/16 13:11:52;;;;;;;0.30;0.30;;;24.80;72.70;;;;;;5033816;28;20736;-71
2022/05/16 13:14:23;;;;;;;0.40;0.40;;;24.80;74.00;;;;;;5033365;28;20907;-71
2022/05/16 13:16:54;;;;;;;0.30;0.30;;;24.50;73.00;;;;;;5032308;28;20372;-70
2022/05/16 13:19:23;;;;;;;0.40;0.40;;;24.20;73.40;;;;;;5033350;28;20444;-70
2022/05/16 13:22:03;;;;;;;0.30;0.30;;;24.10;75.00;;;;;;5033653;28;20883;-69
2022/05/16 13:24:29;;;;;;;0.30;0.30;;;23.90;74.60;;;;;;5033394;28;20372;-71
2022/05/16 13:29:45;;;;;;;0.83;0.83;;;24.00;74.70;;;;;;5033294;28;20425;-71
2022/05/16 13:32:19;;;;;;;0.40;0.40;;;24.40;73.80;;;;;;5033186;28;20445;-72
2022/05/16 13:34:54;;;;;;;0.30;0.30;;;24.60;74.00;;;;;;5032162;28;20392;-72
2022/05/16 13:37:22;;;;;;;0.40;0.40;;;24.60;71.30;;;;;;5033432;28;20400;-70
2022/05/16 13:39:54;;;;;;;0.30;0.30;;;24.30;72.20;;;;;;5033104;28;20502;-71
2022/05/16 13:42:21;;;;;;;0.40;0.40;;;23.80;76.80;;;;;;5033216;28;20495;-71
2022/05/16 13:44:51;;;;;;;0.30;0.30;;;23.40;73.50;;;;;;5033162;28;20479;-69